Time;durP1;ratioP1;P1;durP2;ratioP2;P2;SDS_P1;SDS_P2;PMS_P1;PMS_P2;Temp;Humidity;BMP_temperature;BMP_pressure;BME280_temperature;BME280_humidity;BME280_pressure;Samples;Min_cycle;Max_cycle;Signal;HPM_P1;HPM_P2
2022/10/31 00:00:55;;;;;;;8.43;6.30;;;12.90;99.90;;;;;;5090164;28;20205;-76
2022/10/31 00:03:22;;;;;;;10.37;6.83;;;12.90;99.90;;;;;;5087552;28;20209;-76
2022/10/31 00:05:51;;;;;;;8.63;6.30;;;12.90;99.90;;;;;;5090275;28;20208;-76
2022/10/31 00:08:21;;;;;;;11.03;6.90;;;12.90;99.90;;;;;;5089786;28;20229;-77
2022/10/31 00:10:47;;;;;;;8.90;6.23;;;12.90;99.90;;;;;;5090266;28;20235;-75
2022/10/31 00:13:15;;;;;;;7.07;6.00;;;12.90;99.90;;;;;;5086027;28;20200;-77
2022/10/31 00:15:42;;;;;;;9.37;6.23;;;12.90;99.90;;;;;;5081980;28;20223;-77
2022/10/31 00:18:10;;;;;;;11.27;6.70;;;12.80;99.90;;;;;;5087428;28;20602;-75
2022/10/31 00:20:38;;;;;;;8.37;5.90;;;12.80;99.90;;;;;;5090840;28;20208;-75
2022/10/31 00:23:07;;;;;;;9.17;6.27;;;12.80;99.90;;;;;;5091166;28;20232;-76
2022/10/31 00:25:36;;;;;;;9.17;5.87;;;12.80;99.90;;;;;;5090074;28;20687;-76
2022/10/31 00:28:03;;;;;;;10.07;6.53;;;12.80;99.90;;;;;;5089939;28;20668;-75
2022/10/31 00:30:30;;;;;;;7.60;5.43;;;12.80;99.90;;;;;;5088810;28;20584;-76
2022/10/31 00:32:56;;;;;;;8.43;5.80;;;12.80;99.90;;;;;;5091904;28;20212;-77
2022/10/31 00:35:23;;;;;;;6.80;5.80;;;12.80;99.90;;;;;;5089329;28;20211;-76
2022/10/31 00:37:50;;;;;;;8.13;6.47;;;12.70;99.90;;;;;;5089675;28;20219;-76
2022/10/31 00:40:18;;;;;;;12.60;6.80;;;12.70;99.90;;;;;;5090511;28;20204;-76
2022/10/31 00:42:45;;;;;;;8.47;6.67;;;12.80;99.90;;;;;;5090664;28;20239;-76
2022/10/31 00:45:12;;;;;;;9.67;6.57;;;12.70;99.90;;;;;;5089292;28;20212;-77
2022/10/31 00:47:39;;;;;;;7.53;6.13;;;12.70;99.90;;;;;;5089812;28;20681;-76
2022/10/31 00:50:06;;;;;;;7.73;6.13;;;12.70;99.90;;;;;;5089650;28;20236;-76
2022/10/31 00:52:34;;;;;;;7.63;6.07;;;12.60;99.90;;;;;;5090748;28;20563;-75
2022/10/31 00:55:01;;;;;;;13.13;7.30;;;12.60;99.90;;;;;;5091140;28;20215;-76
2022/10/31 00:57:29;;;;;;;10.30;6.93;;;12.60;99.90;;;;;;5089663;28;20571;-76
2022/10/31 00:59:56;;;;;;;12.60;7.43;;;12.60;99.90;;;;;;5087933;28;20629;-77
2022/10/31 01:02:22;;;;;;;11.40;7.73;;;12.60;99.90;;;;;;5089734;28;20600;-76
2022/10/31 01:04:49;;;;;;;13.23;8.03;;;12.50;99.90;;;;;;5090725;28;20209;-76
2022/10/31 01:07:16;;;;;;;14.77;8.80;;;12.50;99.90;;;;;;5088631;28;20651;-76
2022/10/31 01:09:42;;;;;;;12.13;8.20;;;12.50;99.90;;;;;;5088612;28;20219;-76
2022/10/31 01:12:09;;;;;;;10.20;7.90;;;12.50;99.90;;;;;;5089401;28;20231;-76
2022/10/31 01:14:37;;;;;;;11.10;7.50;;;12.40;99.90;;;;;;5091111;28;20620;-76
2022/10/31 01:17:04;;;;;;;13.17;8.47;;;12.40;99.90;;;;;;5087611;28;20673;-77
2022/10/31 01:19:31;;;;;;;11.87;7.73;;;12.40;99.90;;;;;;5089640;28;20215;-76
2022/10/31 01:21:58;;;;;;;9.57;8.17;;;12.40;99.90;;;;;;5088964;28;20204;-76
2022/10/31 01:24:25;;;;;;;11.33;7.57;;;12.30;99.90;;;;;;5089984;28;20200;-77
2022/10/31 01:26:51;;;;;;;9.33;7.03;;;12.30;99.90;;;;;;5089902;28;20728;-76
2022/10/31 01:29:18;;;;;;;9.83;8.03;;;12.30;99.90;;;;;;5089555;28;20208;-77
2022/10/31 01:31:46;;;;;;;11.80;7.87;;;12.30;99.90;;;;;;5087514;28;20228;-76
2022/10/31 01:34:15;;;;;;;10.67;7.47;;;12.30;99.90;;;;;;5089565;28;20215;-76
2022/10/31 01:36:42;;;;;;;12.87;7.87;;;12.20;99.90;;;;;;5090089;28;20212;-76
2022/10/31 01:39:11;;;;;;;11.50;8.03;;;12.20;99.90;;;;;;5090248;28;20205;-77
2022/10/31 01:41:40;;;;;;;12.73;7.87;;;12.20;99.90;;;;;;5088102;28;20527;-77
2022/10/31 01:44:40;;;;;;;9.60;7.03;;;12.20;99.90;;;;;;5087711;28;20216;-76
2022/10/31 01:47:13;;;;;;;10.03;7.27;;;12.20;99.90;;;;;;5088982;28;20205;-76
2022/10/31 01:49:46;;;;;;;9.67;6.90;;;12.10;99.90;;;;;;5090569;28;20201;-77
2022/10/31 01:52:17;;;;;;;10.50;7.27;;;12.10;99.90;;;;;;5088697;28;20790;-76
2022/10/31 01:54:48;;;;;;;11.90;8.00;;;12.10;99.90;;;;;;5090021;28;20205;-76
2022/10/31 01:57:16;;;;;;;10.87;8.50;;;12.20;99.90;;;;;;5093759;28;20212;-76
2022/10/31 01:59:48;;;;;;;11.10;7.63;;;12.10;99.90;;;;;;5092418;28;20204;-76
2022/10/31 02:02:18;;;;;;;10.00;8.10;;;12.10;99.90;;;;;;5090510;28;20194;-76
2022/10/31 02:04:45;;;;;;;11.80;8.60;;;12.10;99.90;;;;;;5092951;28;20205;-76
2022/10/31 02:07:17;;;;;;;10.20;8.40;;;12.10;99.90;;;;;;5093090;28;20240;-76
2022/10/31 02:09:45;;;;;;;12.63;8.67;;;12.00;99.90;;;;;;5091699;28;20204;-75
2022/10/31 02:12:14;;;;;;;15.53;9.83;;;12.00;99.90;;;;;;5090027;28;20228;-76
2022/10/31 02:14:41;;;;;;;12.80;8.80;;;12.00;99.90;;;;;;5093880;28;20205;-76
2022/10/31 02:17:08;;;;;;;13.07;9.63;;;12.00;99.90;;;;;;5094137;28;20536;-76
2022/10/31 02:19:43;;;;;;;11.80;9.13;;;12.00;99.90;;;;;;5095568;28;20665;-75
2022/10/31 02:22:16;;;;;;;13.37;9.33;;;12.00;99.90;;;;;;5090442;28;20208;-75
2022/10/31 02:24:55;;;;;;;16.27;9.40;;;11.90;99.90;;;;;;5093400;28;20208;-75
2022/10/31 02:27:55;;;;;;;10.97;8.77;;;12.00;99.90;;;;;;5090191;28;20211;-75
2022/10/31 02:30:24;;;;;;;11.03;8.80;;;12.00;99.90;;;;;;5079780;28;20757;-76
2022/10/31 02:33:06;;;;;;;18.10;9.80;;;12.00;99.90;;;;;;5090792;28;20279;-76
2022/10/31 02:35:45;;;;;;;16.40;9.43;;;12.00;99.90;;;;;;5092463;28;20216;-76
2022/10/31 02:38:22;;;;;;;14.33;9.37;;;12.00;99.90;;;;;;5093384;28;20196;-76
2022/10/31 02:40:54;;;;;;;11.40;8.90;;;12.00;99.90;;;;;;5092527;28;20218;-76
2022/10/31 02:43:28;;;;;;;13.17;9.30;;;12.00;99.90;;;;;;5089549;28;20208;-75
2022/10/31 02:45:58;;;;;;;13.60;9.00;;;12.00;99.90;;;;;;5092187;28;20571;-75
2022/10/31 02:48:32;;;;;;;13.40;9.53;;;12.00;99.90;;;;;;5092037;28;20212;-75
2022/10/31 02:51:01;;;;;;;14.23;9.30;;;11.90;99.90;;;;;;5091171;28;20220;-75
2022/10/31 02:53:32;;;;;;;13.40;9.63;;;11.90;99.90;;;;;;5091863;28;20645;-75
2022/10/31 02:56:02;;;;;;;15.40;9.60;;;11.90;99.90;;;;;;5093541;28;20220;-76
2022/10/31 02:58:32;;;;;;;14.10;9.17;;;11.90;99.90;;;;;;5092695;28;20236;-75
2022/10/31 03:01:13;;;;;;;15.37;10.80;;;11.90;99.90;;;;;;5088314;28;20201;-76
2022/10/31 03:03:53;;;;;;;12.13;9.60;;;11.90;99.90;;;;;;5089646;28;20608;-75
2022/10/31 03:06:28;;;;;;;11.73;9.37;;;11.90;99.90;;;;;;5091476;28;20234;-75
2022/10/31 03:09:01;;;;;;;12.53;9.50;;;11.90;99.90;;;;;;5092259;28;20661;-76
2022/10/31 03:11:34;;;;;;;11.00;9.00;;;11.90;99.90;;;;;;5076308;28;20225;-75
2022/10/31 03:14:08;;;;;;;14.97;9.47;;;11.90;99.90;;;;;;5091453;28;20599;-75
2022/10/31 03:16:43;;;;;;;13.93;10.37;;;11.90;99.90;;;;;;5091327;28;20201;-76
2022/10/31 03:19:14;;;;;;;14.30;9.97;;;11.90;99.90;;;;;;5089716;28;20222;-77
2022/10/31 03:21:45;;;;;;;17.93;11.10;;;11.90;99.90;;;;;;5091409;28;20669;-76
2022/10/31 03:24:14;;;;;;;12.47;9.97;;;11.90;99.90;;;;;;5091361;28;20224;-76
2022/10/31 03:26:45;;;;;;;14.50;9.83;;;11.90;99.90;;;;;;5091703;28;20213;-76
2022/10/31 03:29:17;;;;;;;14.53;10.33;;;11.80;99.90;;;;;;5091165;28;20211;-76
2022/10/31 03:31:47;;;;;;;13.97;10.47;;;11.90;99.90;;;;;;5089622;28;20588;-76
2022/10/31 03:34:18;;;;;;;17.97;10.50;;;11.90;99.90;;;;;;5091072;28;20200;-75
2022/10/31 03:36:47;;;;;;;16.27;11.03;;;11.90;99.90;;;;;;5092815;28;20212;-76
2022/10/31 03:39:18;;;;;;;15.27;10.27;;;11.90;99.90;;;;;;5091737;28;20204;-75
2022/10/31 03:41:49;;;;;;;16.47;11.50;;;11.90;99.90;;;;;;5093569;28;20200;-75
2022/10/31 03:44:20;;;;;;;16.47;11.30;;;12.00;99.90;;;;;;5085987;28;20208;-77
2022/10/31 03:46:47;;;;;;;14.63;11.07;;;11.90;99.90;;;;;;5091482;28;20197;-76
2022/10/31 03:49:16;;;;;;;11.53;9.97;;;11.90;99.90;;;;;;5089902;28;20213;-77
2022/10/31 03:51:48;;;;;;;14.13;10.33;;;11.90;99.90;;;;;;5090295;28;20220;-75
2022/10/31 03:54:22;;;;;;;13.13;9.77;;;11.90;99.90;;;;;;5090011;28;20749;-76
2022/10/31 03:56:54;;;;;;;11.63;9.47;;;11.90;99.90;;;;;;5092139;28;20207;-76
2022/10/31 03:59:25;;;;;;;14.60;11.47;;;11.90;99.90;;;;;;5090969;28;20424;-76
2022/10/31 04:01:56;;;;;;;15.80;11.80;;;11.90;99.90;;;;;;5091037;28;20201;-76
2022/10/31 04:04:26;;;;;;;15.30;11.70;;;11.90;99.90;;;;;;5091107;28;20219;-76
2022/10/31 04:06:54;;;;;;;17.53;12.60;;;11.80;99.90;;;;;;5089990;28;20232;-77
2022/10/31 04:09:22;;;;;;;17.23;12.10;;;11.80;99.90;;;;;;5090289;28;20601;-76
2022/10/31 04:11:53;;;;;;;18.80;13.03;;;11.80;99.90;;;;;;5091083;28;20755;-76
2022/10/31 04:14:21;;;;;;;17.83;12.47;;;11.70;99.90;;;;;;5090985;28;20215;-76
2022/10/31 04:16:48;;;;;;;19.60;13.23;;;11.80;99.90;;;;;;5091167;28;20219;-76
2022/10/31 04:19:15;;;;;;;16.23;12.80;;;11.70;99.90;;;;;;5088470;28;20537;-75
2022/10/31 04:21:44;;;;;;;17.27;12.00;;;11.70;99.90;;;;;;5089686;28;20645;-76
2022/10/31 04:24:11;;;;;;;15.43;11.50;;;11.80;99.90;;;;;;5087972;28;20233;-77
2022/10/31 04:26:38;;;;;;;15.93;12.20;;;11.70;99.90;;;;;;5089428;28;20208;-76
2022/10/31 04:29:04;;;;;;;14.77;12.13;;;11.70;99.90;;;;;;5090698;28;20212;-77
2022/10/31 04:31:31;;;;;;;14.47;11.10;;;11.70;99.90;;;;;;5090006;28;20228;-76
2022/10/31 04:33:58;;;;;;;15.83;11.17;;;11.60;99.90;;;;;;5091429;28;20212;-76
2022/10/31 04:36:25;;;;;;;17.53;10.53;;;11.60;99.90;;;;;;5090273;28;20665;-76
2022/10/31 04:38:53;;;;;;;13.47;10.47;;;11.60;99.90;;;;;;5089598;28;20278;-76
2022/10/31 04:41:20;;;;;;;16.50;12.00;;;11.60;99.90;;;;;;5087026;28;20205;-76
2022/10/31 04:43:46;;;;;;;15.47;10.47;;;11.60;99.90;;;;;;5081008;28;20209;-75
2022/10/31 04:46:13;;;;;;;19.90;12.03;;;11.50;99.90;;;;;;5089207;28;20212;-76
2022/10/31 04:48:40;;;;;;;14.77;11.47;;;11.60;99.90;;;;;;5079825;28;20601;-76
2022/10/31 04:51:07;;;;;;;14.20;11.40;;;11.60;99.90;;;;;;5088884;28;20204;-75
2022/10/31 04:53:33;;;;;;;15.47;11.07;;;11.60;99.90;;;;;;5090894;28;20216;-77
2022/10/31 04:56:02;;;;;;;14.60;10.27;;;11.60;99.90;;;;;;5088014;28;20219;-77
2022/10/31 04:58:29;;;;;;;14.87;11.13;;;11.60;99.90;;;;;;5091357;28;20572;-76
2022/10/31 05:00:56;;;;;;;14.83;10.73;;;11.50;99.90;;;;;;5088676;28;20212;-76
2022/10/31 05:03:23;;;;;;;15.93;11.40;;;11.50;99.90;;;;;;5088420;28;20205;-76
2022/10/31 05:05:50;;;;;;;14.87;11.60;;;11.50;99.90;;;;;;5090485;28;20243;-78
2022/10/31 05:08:17;;;;;;;16.13;11.93;;;11.50;99.90;;;;;;5090257;28;20247;-76
2022/10/31 05:10:44;;;;;;;20.20;12.37;;;11.50;99.90;;;;;;5089622;28;20219;-76
2022/10/31 05:13:12;;;;;;;16.47;12.20;;;11.50;99.90;;;;;;5089401;28;20274;-75
2022/10/31 05:15:39;;;;;;;17.50;10.90;;;11.50;99.90;;;;;;5090164;28;20212;-76
2022/10/31 05:18:06;;;;;;;14.60;11.03;;;11.60;99.90;;;;;;5090266;28;20208;-77
2022/10/31 05:20:33;;;;;;;18.43;11.53;;;11.60;99.90;;;;;;5089767;28;20587;-77
2022/10/31 05:23:00;;;;;;;16.67;10.57;;;11.60;99.90;;;;;;5089687;28;20232;-77
2022/10/31 05:25:28;;;;;;;16.90;11.30;;;11.60;99.90;;;;;;5088919;28;20227;-76
2022/10/31 05:27:56;;;;;;;14.43;10.87;;;11.60;99.90;;;;;;5076588;28;20212;-76
2022/10/31 05:30:26;;;;;;;14.57;10.10;;;11.60;99.90;;;;;;5087667;28;20205;-76
2022/10/31 05:32:53;;;;;;;13.93;10.30;;;11.60;99.90;;;;;;5092806;28;20216;-77
2022/10/31 05:35:22;;;;;;;15.03;9.90;;;11.60;99.90;;;;;;5094520;28;20655;-76
2022/10/31 05:37:49;;;;;;;12.83;10.80;;;11.60;99.90;;;;;;5094261;28;20215;-76
2022/10/31 05:40:18;;;;;;;14.00;10.67;;;11.60;99.90;;;;;;5093118;28;20295;-76
2022/10/31 05:42:45;;;;;;;15.33;11.07;;;11.60;99.90;;;;;;5093141;28;20196;-76
2022/10/31 05:45:14;;;;;;;14.57;11.10;;;11.60;99.90;;;;;;5093046;28;20212;-76
2022/10/31 05:47:42;;;;;;;13.33;10.03;;;11.70;99.90;;;;;;5094610;28;20212;-76
2022/10/31 05:50:10;;;;;;;12.80;9.00;;;11.60;99.90;;;;;;5092256;28;20699;-77
2022/10/31 05:52:37;;;;;;;14.03;9.67;;;11.70;99.90;;;;;;5091033;28;20231;-77
2022/10/31 05:55:05;;;;;;;14.70;10.60;;;11.70;99.90;;;;;;5092673;28;20220;-74
2022/10/31 05:57:33;;;;;;;11.80;9.60;;;11.70;99.90;;;;;;5091407;28;20205;-71
2022/10/31 06:00:00;;;;;;;12.57;10.30;;;11.80;99.90;;;;;;5085764;28;20572;-72
2022/10/31 06:02:31;;;;;;;12.60;10.10;;;11.80;99.90;;;;;;5091522;28;20559;-73
2022/10/31 06:04:59;;;;;;;13.07;10.20;;;11.80;99.90;;;;;;5091864;28;20228;-73
2022/10/31 06:07:26;;;;;;;10.90;9.20;;;11.80;99.90;;;;;;5093639;28;20269;-75
2022/10/31 06:09:52;;;;;;;15.10;10.63;;;11.80;99.90;;;;;;5088861;28;20213;-73
2022/10/31 06:12:19;;;;;;;12.80;9.97;;;11.80;99.90;;;;;;5088510;28;20220;-72
2022/10/31 06:14:46;;;;;;;13.40;9.73;;;11.90;99.90;;;;;;5090243;28;20216;-72
2022/10/31 06:17:13;;;;;;;13.23;9.73;;;11.90;99.90;;;;;;5089204;28;20572;-74
2022/10/31 06:19:39;;;;;;;14.67;10.00;;;11.90;99.90;;;;;;5091462;28;20219;-74
2022/10/31 06:22:07;;;;;;;14.57;10.17;;;12.00;99.90;;;;;;5087251;28;20576;-73
2022/10/31 06:24:34;;;;;;;17.87;10.70;;;12.10;99.90;;;;;;5088215;28;20212;-72
2022/10/31 06:27:01;;;;;;;12.37;9.33;;;12.10;99.90;;;;;;5089392;28;20647;-73
2022/10/31 06:29:28;;;;;;;13.10;10.67;;;12.10;99.90;;;;;;5086652;28;20207;-73
2022/10/31 06:31:55;;;;;;;15.87;10.43;;;12.20;99.90;;;;;;5089546;28;20225;-73
2022/10/31 06:34:21;;;;;;;13.83;11.70;;;12.20;99.90;;;;;;5090498;28;20619;-72
2022/10/31 06:36:48;;;;;;;15.30;10.70;;;12.30;99.90;;;;;;5091495;28;20220;-72
2022/10/31 06:39:16;;;;;;;14.67;11.50;;;12.40;99.90;;;;;;5090916;28;20624;-72
2022/10/31 06:41:43;;;;;;;16.43;11.23;;;12.30;99.90;;;;;;5086604;28;20692;-72
2022/10/31 06:44:10;;;;;;;16.83;12.37;;;12.40;99.90;;;;;;5091236;28;20216;-72
2022/10/31 06:46:36;;;;;;;18.20;12.57;;;12.40;99.90;;;;;;5083431;28;20548;-72
2022/10/31 06:49:03;;;;;;;13.63;11.40;;;12.50;99.90;;;;;;5090994;28;20649;-68
2022/10/31 06:51:30;;;;;;;16.53;12.50;;;12.60;99.90;;;;;;5091416;28;20266;-72
2022/10/31 06:53:57;;;;;;;16.20;12.03;;;12.70;99.90;;;;;;5085341;28;20236;-74
2022/10/31 06:56:25;;;;;;;16.60;12.40;;;12.80;99.90;;;;;;5090280;28;20196;-72
2022/10/31 06:58:51;;;;;;;15.23;11.87;;;12.90;99.90;;;;;;5092301;28;20208;-72
2022/10/31 07:01:18;;;;;;;15.23;12.13;;;13.10;99.90;;;;;;5092137;28;20614;-71
2022/10/31 07:03:45;;;;;;;17.00;12.23;;;13.20;99.90;;;;;;5088561;28;20220;-73
2022/10/31 07:06:11;;;;;;;20.77;13.30;;;13.30;99.90;;;;;;5093006;28;20215;-72
2022/10/31 07:08:38;;;;;;;17.57;12.20;;;13.40;99.90;;;;;;5092622;28;20216;-72
2022/10/31 07:11:05;;;;;;;15.90;12.07;;;13.70;99.90;;;;;;5091660;28;20654;-72
2022/10/31 07:13:33;;;;;;;16.63;11.87;;;13.90;99.90;;;;;;5088699;28;20302;-72
2022/10/31 07:16:03;;;;;;;16.10;11.30;;;14.00;99.90;;;;;;5091569;28;21045;-72
2022/10/31 07:18:29;;;;;;;15.70;11.27;;;14.10;99.90;;;;;;5092514;28;20205;-71
2022/10/31 07:20:56;;;;;;;14.63;10.07;;;14.20;99.90;;;;;;5090889;28;20204;-72
2022/10/31 07:23:23;;;;;;;17.30;10.50;;;14.40;99.90;;;;;;5092490;28;20232;-72
2022/10/31 07:25:55;;;;;;;14.67;10.40;;;14.40;99.90;;;;;;5092276;28;20219;-72
2022/10/31 07:28:22;;;;;;;13.70;10.43;;;14.60;99.90;;;;;;5090572;28;20211;-72
2022/10/31 07:30:52;;;;;;;14.37;10.13;;;14.70;99.90;;;;;;5090071;28;20413;-71
2022/10/31 07:33:19;;;;;;;13.90;10.60;;;14.80;99.90;;;;;;5086703;28;20712;-72
2022/10/31 07:35:46;;;;;;;14.23;10.87;;;14.90;99.90;;;;;;5088398;28;20211;-69
2022/10/31 07:38:14;;;;;;;15.37;10.73;;;15.00;99.90;;;;;;5090726;28;20211;-69
2022/10/31 07:40:42;;;;;;;16.50;10.60;;;15.10;99.90;;;;;;5091361;28;20209;-70
2022/10/31 07:43:11;;;;;;;13.70;10.57;;;15.30;99.90;;;;;;5089043;28;20572;-70
2022/10/31 07:45:38;;;;;;;16.37;10.63;;;15.30;99.90;;;;;;5087862;28;20223;-71
2022/10/31 07:48:06;;;;;;;13.10;10.20;;;15.30;99.90;;;;;;5089214;28;20200;-68
2022/10/31 07:50:34;;;;;;;14.57;10.33;;;15.40;99.90;;;;;;5089840;28;20610;-67
2022/10/31 07:53:01;;;;;;;14.17;10.33;;;15.50;99.90;;;;;;5089193;28;20228;-71
2022/10/31 07:55:28;;;;;;;13.33;9.60;;;15.70;99.90;;;;;;5088699;28;20549;-72
2022/10/31 07:57:59;;;;;;;13.93;10.20;;;15.80;99.90;;;;;;5090511;28;20208;-70
2022/10/31 08:00:27;;;;;;;15.17;10.47;;;15.90;99.90;;;;;;5084583;28;20212;-73
2022/10/31 08:03:00;;;;;;;16.20;11.10;;;16.00;99.90;;;;;;5087221;28;20201;-70
2022/10/31 08:05:29;;;;;;;15.57;11.73;;;16.00;99.90;;;;;;5078277;28;20217;-72
2022/10/31 08:07:57;;;;;;;16.97;11.93;;;16.10;99.90;;;;;;5081206;28;20763;-72
2022/10/31 08:10:24;;;;;;;15.33;11.37;;;16.10;99.90;;;;;;5086602;28;20205;-72
2022/10/31 08:12:57;;;;;;;16.67;11.73;;;16.10;99.90;;;;;;5088732;28;20581;-72
2022/10/31 08:15:24;;;;;;;17.93;12.20;;;16.10;99.90;;;;;;5083762;28;20189;-72
2022/10/31 08:17:51;;;;;;;18.07;12.77;;;16.20;99.90;;;;;;5088353;28;20216;-72
2022/10/31 08:20:18;;;;;;;15.17;11.63;;;16.10;99.90;;;;;;5088896;28;20605;-72
2022/10/31 08:22:53;;;;;;;18.87;12.90;;;16.20;99.90;;;;;;5086856;28;20236;-71
2022/10/31 08:25:20;;;;;;;16.15;12.98;;;16.20;99.90;;;;;;5084159;28;20587;-72
2022/10/31 08:27:50;;;;;;;17.77;11.93;;;16.40;99.90;;;;;;5084856;28;20208;-72
2022/10/31 08:30:17;;;;;;;17.52;12.07;;;16.60;99.90;;;;;;5081857;28;20482;-71
2022/10/31 08:32:44;;;;;;;15.38;11.73;;;16.70;99.90;;;;;;5083988;28;20311;-71
2022/10/31 08:35:11;;;;;;;14.80;11.70;;;16.90;99.90;;;;;;5089365;28;20586;-72
2022/10/31 08:37:37;;;;;;;15.75;12.45;;;17.10;99.90;;;;;;5087391;28;20563;-71
2022/10/31 08:40:07;;;;;;;15.27;10.70;;;17.30;99.90;;;;;;5088365;28;20205;-72
2022/10/31 08:42:34;;;;;;;16.95;11.38;;;17.80;99.90;;;;;;5090238;28;20258;-72
2022/10/31 08:45:00;;;;;;;12.98;10.02;;;19.00;99.90;;;;;;5082913;28;20212;-71
2022/10/31 08:47:27;;;;;;;14.60;10.60;;;21.00;99.90;;;;;;5085155;28;20235;-72
2022/10/31 08:49:54;;;;;;;13.55;9.00;;;23.20;99.90;;;;;;5086816;28;20228;-72
2022/10/31 08:52:24;;;;;;;11.93;9.48;;;25.10;93.90;;;;;;5079856;28;20209;-72
2022/10/31 08:54:50;;;;;;;12.68;9.95;;;26.60;83.60;;;;;;5087296;28;20595;-72
2022/10/31 08:57:18;;;;;;;12.07;9.68;;;27.90;74.50;;;;;;5088491;28;20204;-72
2022/10/31 08:59:45;;;;;;;12.65;9.40;;;29.00;67.80;;;;;;5084314;28;20209;-71
2022/10/31 09:02:12;;;;;;;11.40;9.40;;;29.80;62.10;;;;;;5081623;28;20200;-71
2022/10/31 09:04:39;;;;;;;11.10;9.23;;;30.60;57.90;;;;;;5083450;28;20200;-71
2022/10/31 09:07:06;;;;;;;10.45;9.27;;;31.30;55.90;;;;;;5085687;28;20240;-71
2022/10/31 09:09:32;;;;;;;9.80;8.75;;;31.90;53.60;;;;;;5089463;28;20213;-73
2022/10/31 09:11:59;;;;;;;10.55;9.32;;;32.50;51.70;;;;;;5084017;28;20515;-73
2022/10/31 09:14:27;;;;;;;12.25;9.75;;;32.80;49.80;;;;;;5082503;28;20854;-71
2022/10/31 09:16:54;;;;;;;12.48;9.93;;;33.40;48.40;;;;;;5084026;28;20215;-69
2022/10/31 09:19:21;;;;;;;11.45;9.85;;;33.70;47.30;;;;;;5080980;28;20208;-72
2022/10/31 09:21:48;;;;;;;11.82;9.55;;;34.00;46.50;;;;;;5087068;28;20208;-71
2022/10/31 09:24:14;;;;;;;11.55;9.35;;;34.60;45.40;;;;;;5086413;28;20240;-72
2022/10/31 09:26:41;;;;;;;11.13;9.70;;;34.90;44.50;;;;;;5081172;28;20211;-72
2022/10/31 09:29:09;;;;;;;12.30;9.50;;;35.30;43.90;;;;;;5087176;28;20664;-72
2022/10/31 09:31:37;;;;;;;12.18;9.75;;;35.40;43.00;;;;;;5087524;28;20250;-72
2022/10/31 09:34:04;;;;;;;11.02;9.82;;;35.60;42.80;;;;;;5089406;28;20250;-73
2022/10/31 09:36:31;;;;;;;16.90;10.32;;;36.00;42.30;;;;;;5083503;28;20219;-72
2022/10/31 09:38:58;;;;;;;11.90;9.82;;;36.80;40.90;;;;;;5085206;28;20201;-71
2022/10/31 09:41:31;;;;;;;11.30;9.77;;;37.20;40.10;;;;;;5081177;28;20204;-72
2022/10/31 09:44:09;;;;;;;11.70;10.05;;;36.80;40.00;;;;;;5071034;28;20677;-72
2022/10/31 09:46:47;;;;;;;11.77;10.57;;;36.70;40.10;;;;;;5084478;28;20212;-71
2022/10/31 09:49:35;;;;;;;11.93;10.27;;;37.00;40.10;;;;;;5082649;28;20566;-73
2022/10/31 09:52:09;;;;;;;11.65;10.45;;;37.30;39.20;;;;;;5083803;28;20196;-72
2022/10/31 09:54:43;;;;;;;11.65;10.20;;;37.20;39.20;;;;;;5082275;28;20214;-72
2022/10/31 09:57:15;;;;;;;12.07;10.70;;;37.10;39.10;;;;;;5083977;28;20211;-72
2022/10/31 09:59:44;;;;;;;11.57;9.85;;;37.20;39.20;;;;;;5086990;28;20603;-73
2022/10/31 10:02:18;;;;;;;11.95;9.95;;;37.50;38.80;;;;;;5085637;28;20201;-73
2022/10/31 10:04:50;;;;;;;12.75;10.93;;;38.50;37.70;;;;;;5087316;28;20204;-73
2022/10/31 10:07:26;;;;;;;12.68;11.38;;;39.00;36.90;;;;;;5085017;28;20251;-72
2022/10/31 10:09:53;;;;;;;12.05;10.70;;;39.40;36.00;;;;;;5085446;28;20488;-72
2022/10/31 10:12:33;;;;;;;15.63;10.93;;;39.60;35.60;;;;;;5089701;28;20208;-72
2022/10/31 10:15:25;;;;;;;11.90;10.70;;;40.20;35.10;;;;;;5088271;28;20232;-72
2022/10/31 10:18:02;;;;;;;11.52;10.35;;;40.90;34.10;;;;;;5086832;28;20200;-71
2022/10/31 10:20:35;;;;;;;11.27;10.13;;;40.60;34.30;;;;;;5091952;28;20222;-71
2022/10/31 10:23:22;;;;;;;11.65;10.45;;;40.40;34.20;;;;;;5089222;28;20251;-73
2022/10/31 10:25:58;;;;;;;11.77;10.60;;;41.00;33.70;;;;;;5082743;28;20220;-72
2022/10/31 10:28:31;;;;;;;12.57;10.60;;;41.70;33.00;;;;;;5088912;28;20211;-73
2022/10/31 10:31:03;;;;;;;11.45;10.35;;;42.10;32.50;;;;;;5087036;28;20624;-72
2022/10/31 10:33:36;;;;;;;12.25;9.98;;;42.30;32.60;;;;;;5089877;28;20250;-73
2022/10/31 10:36:08;;;;;;;11.85;10.77;;;42.30;32.10;;;;;;5088837;28;20219;-72
2022/10/31 10:38:38;;;;;;;11.50;10.20;;;42.70;31.70;;;;;;5087590;28;20212;-72
2022/10/31 10:41:12;;;;;;;11.45;10.25;;;43.00;31.80;;;;;;5080182;28;20330;-72
2022/10/31 10:43:39;;;;;;;13.52;10.85;;;43.20;30.90;;;;;;5079525;28;20203;-72
2022/10/31 10:49:20;;;;;;;13.88;11.57;;;42.60;30.90;;;;;;5084004;28;20217;-72
2022/10/31 10:51:53;;;;;;;12.43;11.13;;;42.30;31.40;;;;;;5078541;28;20291;-72
2022/10/31 10:54:57;;;;;;;12.20;11.00;;;42.50;31.50;;;;;;5085057;28;20520;-72
2022/10/31 10:57:48;;;;;;;13.73;12.43;;;43.20;30.70;;;;;;5001767;28;20290;-72
2022/10/31 11:00:19;;;;;;;13.43;12.13;;;43.40;30.50;;;;;;5081146;28;20238;-72
2022/10/31 11:02:47;;;;;;;12.95;11.30;;;43.40;30.50;;;;;;5083115;28;20206;-72
2022/10/31 11:05:23;;;;;;;15.00;12.43;;;43.20;30.40;;;;;;5087210;28;20202;-73
2022/10/31 11:07:50;;;;;;;12.30;11.07;;;43.20;30.30;;;;;;5088179;28;20585;-72
2022/10/31 11:10:18;;;;;;;12.55;11.35;;;43.10;30.80;;;;;;5087604;28;20359;-71
2022/10/31 11:12:57;;;;;;;12.63;11.43;;;42.90;30.60;;;;;;5087226;28;20208;-72
2022/10/31 11:15:26;;;;;;;11.70;10.60;;;42.90;30.80;;;;;;5088827;28;20219;-71
2022/10/31 11:17:56;;;;;;;12.25;11.00;;;42.80;30.70;;;;;;5086309;28;20681;-72
2022/10/31 11:20:32;;;;;;;11.73;10.68;;;42.70;31.60;;;;;;5088386;28;20655;-72
2022/10/31 11:23:04;;;;;;;12.20;10.85;;;42.60;31.10;;;;;;5090252;28;20226;-72
2022/10/31 11:25:32;;;;;;;12.07;10.80;;;42.70;31.10;;;;;;5084966;28;20204;-71
2022/10/31 11:28:03;;;;;;;11.20;9.98;;;43.00;30.80;;;;;;5082120;28;20203;-71
2022/10/31 11:30:31;;;;;;;13.75;11.10;;;43.00;30.80;;;;;;5076728;28;20200;-72
2022/10/31 11:32:59;;;;;;;11.77;10.68;;;43.00;30.90;;;;;;5083540;28;20605;-72
2022/10/31 11:35:28;;;;;;;11.45;10.35;;;42.80;31.00;;;;;;5081119;28;20688;-72
2022/10/31 11:37:59;;;;;;;11.70;10.63;;;43.00;31.00;;;;;;5089110;28;20207;-72
2022/10/31 11:40:27;;;;;;;11.52;10.43;;;42.80;30.90;;;;;;5085378;28;20241;-72
2022/10/31 11:42:58;;;;;;;12.45;10.65;;;41.30;30.90;;;;;;5087425;28;20204;-72
2022/10/31 11:45:31;;;;;;;13.43;12.10;;;39.10;32.90;;;;;;5083301;28;20676;-72
2022/10/31 11:48:01;;;;;;;14.32;12.95;;;36.60;35.30;;;;;;5087682;28;20207;-72
2022/10/31 11:50:38;;;;;;;13.43;11.57;;;34.40;38.10;;;;;;5085308;28;20228;-71
2022/10/31 11:53:12;;;;;;;13.70;12.10;;;32.50;40.90;;;;;;5080985;28;20207;-71
2022/10/31 11:55:40;;;;;;;17.27;12.02;;;31.10;42.90;;;;;;5083667;28;20561;-72
2022/10/31 11:58:22;;;;;;;13.90;11.48;;;29.70;45.10;;;;;;5084846;28;20228;-72
2022/10/31 12:00:51;;;;;;;16.20;11.07;;;28.40;47.60;;;;;;5080496;28;20620;-72
2022/10/31 12:03:28;;;;;;;14.05;11.40;;;27.40;49.20;;;;;;5089305;28;20613;-72
2022/10/31 12:06:01;;;;;;;19.90;12.02;;;26.50;51.30;;;;;;5087708;28;20215;-72
2022/10/31 12:08:31;;;;;;;16.83;12.63;;;25.60;53.30;;;;;;5084620;28;20224;-72
2022/10/31 12:11:04;;;;;;;19.65;12.70;;;24.80;55.00;;;;;;5081204;28;20208;-72
2022/10/31 12:13:35;;;;;;;16.52;12.90;;;24.20;56.50;;;;;;5085261;28;20203;-73
2022/10/31 12:16:09;;;;;;;16.40;12.43;;;23.60;57.70;;;;;;5079417;28;20216;-73
2022/10/31 12:18:53;;;;;;;18.33;12.65;;;23.00;59.30;;;;;;5081612;28;20197;-73
2022/10/31 12:21:35;;;;;;;15.20;12.50;;;22.40;60.90;;;;;;5084278;28;20231;-72
2022/10/31 12:24:12;;;;;;;15.95;12.60;;;22.00;62.90;;;;;;5084797;28;20232;-72
2022/10/31 12:26:46;;;;;;;18.98;13.50;;;21.50;64.70;;;;;;5088988;28;20200;-72
2022/10/31 12:29:30;;;;;;;18.08;13.88;;;21.20;65.70;;;;;;5087984;28;20211;-72
2022/10/31 12:32:12;;;;;;;17.60;14.00;;;21.00;67.30;;;;;;5089687;28;20668;-72
2022/10/31 12:34:54;;;;;;;15.35;12.63;;;20.80;68.60;;;;;;5094334;28;20239;-71
2022/10/31 12:37:35;;;;;;;17.08;13.27;;;20.60;69.80;;;;;;5080695;28;20208;-70
2022/10/31 12:40:28;;;;;;;17.33;13.27;;;20.50;71.10;;;;;;5088116;28;20570;-74
2022/10/31 12:43:06;;;;;;;18.50;13.75;;;20.30;72.10;;;;;;5090251;28;20201;-71
2022/10/31 12:45:54;;;;;;;19.30;13.98;;;20.20;73.00;;;;;;5089991;28;20211;-71
2022/10/31 12:48:44;;;;;;;19.67;13.80;;;20.00;74.40;;;;;;5074354;28;20268;-72